sensor_id;sensor_type;location;lat;lon;timestamp;pressure;altitude;pressure_sealevel;temperature;humidity
43420;BME280;29017;51.514;-0.178;2023-03-15T00:00:21;100951.56;;;7.89;81.71
43420;BME280;29017;51.514;-0.178;2023-03-15T00:02:49;100952.66;;;7.86;81.95
43420;BME280;29017;51.514;-0.178;2023-03-15T00:05:16;100956.25;;;7.85;82.08
43420;BME280;29017;51.514;-0.178;2023-03-15T00:07:43;100957.91;;;7.86;82.27
43420;BME280;29017;51.514;-0.178;2023-03-15T00:10:10;100960.78;;;7.83;81.95
43420;BME280;29017;51.514;-0.178;2023-03-15T00:12:37;100970.56;;;7.81;81.99
43420;BME280;29017;51.514;-0.178;2023-03-15T00:15:04;100982.94;;;7.79;81.75
43420;BME280;29017;51.514;-0.178;2023-03-15T00:17:31;100983.22;;;7.76;81.95
43420;BME280;29017;51.514;-0.178;2023-03-15T00:20:00;100978.50;;;7.70;81.97
43420;BME280;29017;51.514;-0.178;2023-03-15T00:22:27;100989.09;;;7.68;82.64
43420;BME280;29017;51.514;-0.178;2023-03-15T00:24:54;100993.50;;;7.68;83.12
43420;BME280;29017;51.514;-0.178;2023-03-15T00:27:22;100991.72;;;7.68;83.77
43420;BME280;29017;51.514;-0.178;2023-03-15T00:29:49;100992.22;;;7.62;83.13
43420;BME280;29017;51.514;-0.178;2023-03-15T00:32:16;101000.09;;;7.62;83.49
43420;BME280;29017;51.514;-0.178;2023-03-15T00:34:43;100999.25;;;7.62;83.48
43420;BME280;29017;51.514;-0.178;2023-03-15T00:37:15;101009.03;;;7.60;83.22
43420;BME280;29017;51.514;-0.178;2023-03-15T00:39:42;101001.13;;;7.50;83.11
43420;BME280;29017;51.514;-0.178;2023-03-15T00:42:11;101012.69;;;7.48;84.00
43420;BME280;29017;51.514;-0.178;2023-03-15T00:44:41;101013.63;;;7.47;84.14
43420;BME280;29017;51.514;-0.178;2023-03-15T00:47:10;101018.06;;;7.46;83.87
43420;BME280;29017;51.514;-0.178;2023-03-15T00:49:38;101026.03;;;7.45;83.60
43420;BME280;29017;51.514;-0.178;2023-03-15T00:52:05;101028.53;;;7.46;84.07
43420;BME280;29017;51.514;-0.178;2023-03-15T00:54:32;101027.56;;;7.47;84.11
43420;BME280;29017;51.514;-0.178;2023-03-15T00:56:59;101027.69;;;7.46;83.87
43420;BME280;29017;51.514;-0.178;2023-03-15T00:59:27;101036.38;;;7.46;83.95
43420;BME280;29017;51.514;-0.178;2023-03-15T01:01:54;101026.03;;;7.45;83.88
43420;BME280;29017;51.514;-0.178;2023-03-15T01:04:21;101028.31;;;7.38;83.42
43420;BME280;29017;51.514;-0.178;2023-03-15T01:06:48;101025.25;;;7.33;83.31
43420;BME280;29017;51.514;-0.178;2023-03-15T01:09:15;101032.09;;;7.24;83.55
43420;BME280;29017;51.514;-0.178;2023-03-15T01:11:43;101035.91;;;7.20;83.63
43420;BME280;29017;51.514;-0.178;2023-03-15T01:14:10;101042.00;;;7.21;84.10
43420;BME280;29017;51.514;-0.178;2023-03-15T01:16:37;101044.47;;;7.22;84.87
43420;BME280;29017;51.514;-0.178;2023-03-15T01:19:04;101034.94;;;7.21;84.47
43420;BME280;29017;51.514;-0.178;2023-03-15T01:21:31;101039.22;;;7.22;84.71
43420;BME280;29017;51.514;-0.178;2023-03-15T01:23:58;101034.94;;;7.21;85.51
43420;BME280;29017;51.514;-0.178;2023-03-15T01:26:25;101042.94;;;7.20;85.63
43420;BME280;29017;51.514;-0.178;2023-03-15T01:28:52;101036.16;;;7.17;85.10
43420;BME280;29017;51.514;-0.178;2023-03-15T01:31:20;101039.88;;;7.15;84.49
43420;BME280;29017;51.514;-0.178;2023-03-15T01:33:48;101037.38;;;7.13;84.76
43420;BME280;29017;51.514;-0.178;2023-03-15T01:36:15;101042.47;;;7.15;85.48
43420;BME280;29017;51.514;-0.178;2023-03-15T01:38:42;101049.50;;;7.14;85.26
43420;BME280;29017;51.514;-0.178;2023-03-15T01:41:10;101055.69;;;7.13;84.46
43420;BME280;29017;51.514;-0.178;2023-03-15T01:43:38;101054.84;;;7.13;84.50
43420;BME280;29017;51.514;-0.178;2023-03-15T01:51:07;101059.88;;;7.05;84.94
43420;BME280;29017;51.514;-0.178;2023-03-15T01:53:35;101060.00;;;7.03;84.76
43420;BME280;29017;51.514;-0.178;2023-03-15T01:56:03;101073.91;;;7.04;84.60
43420;BME280;29017;51.514;-0.178;2023-03-15T01:58:31;101077.47;;;7.03;84.91
43420;BME280;29017;51.514;-0.178;2023-03-15T02:01:02;101078.31;;;7.03;85.75
43420;BME280;29017;51.514;-0.178;2023-03-15T02:03:32;101090.66;;;7.01;85.33
43420;BME280;29017;51.514;-0.178;2023-03-15T02:06:02;101084.88;;;6.98;84.82
43420;BME280;29017;51.514;-0.178;2023-03-15T02:08:32;101088.56;;;6.95;85.03
43420;BME280;29017;51.514;-0.178;2023-03-15T02:11:01;101093.09;;;6.93;85.07
43420;BME280;29017;51.514;-0.178;2023-03-15T02:13:29;101094.19;;;6.91;85.24
43420;BME280;29017;51.514;-0.178;2023-03-15T02:15:58;101089.63;;;6.93;85.33
43420;BME280;29017;51.514;-0.178;2023-03-15T02:18:25;101089.53;;;6.94;85.48
43420;BME280;29017;51.514;-0.178;2023-03-15T02:20:57;101093.91;;;6.94;85.51
43420;BME280;29017;51.514;-0.178;2023-03-15T02:23:26;101085.63;;;6.88;85.42
43420;BME280;29017;51.514;-0.178;2023-03-15T02:25:56;101085.03;;;6.85;85.10
43420;BME280;29017;51.514;-0.178;2023-03-15T02:28:28;101082.28;;;6.86;85.45
43420;BME280;29017;51.514;-0.178;2023-03-15T02:30:56;101087.66;;;6.85;85.19
43420;BME280;29017;51.514;-0.178;2023-03-15T02:35:53;101096.19;;;6.76;84.55
43420;BME280;29017;51.514;-0.178;2023-03-15T02:38:20;101094.78;;;6.72;84.65
43420;BME280;29017;51.514;-0.178;2023-03-15T02:40:49;101099.19;;;6.71;85.61
43420;BME280;29017;51.514;-0.178;2023-03-15T02:43:19;101107.28;;;6.68;84.93
43420;BME280;29017;51.514;-0.178;2023-03-15T02:45:48;101109.06;;;6.68;85.29
43420;BME280;29017;51.514;-0.178;2023-03-15T02:48:16;101105.03;;;6.64;85.43
43420;BME280;29017;51.514;-0.178;2023-03-15T02:50:43;101108.00;;;6.59;85.45
43420;BME280;29017;51.514;-0.178;2023-03-15T02:53:10;101110.84;;;6.56;85.44
43420;BME280;29017;51.514;-0.178;2023-03-15T02:55:37;101118.69;;;6.56;85.49
43420;BME280;29017;51.514;-0.178;2023-03-15T02:58:05;101117.28;;;6.52;86.14
43420;BME280;29017;51.514;-0.178;2023-03-15T03:00:31;101119.28;;;6.49;85.87
43420;BME280;29017;51.514;-0.178;2023-03-15T03:02:59;101117.88;;;6.44;85.65
43420;BME280;29017;51.514;-0.178;2023-03-15T03:05:26;101114.53;;;6.42;85.92
43420;BME280;29017;51.514;-0.178;2023-03-15T03:07:53;101119.78;;;6.42;86.06
43420;BME280;29017;51.514;-0.178;2023-03-15T03:10:20;101124.75;;;6.45;86.72
43420;BME280;29017;51.514;-0.178;2023-03-15T03:12:48;101124.63;;;6.47;86.43
43420;BME280;29017;51.514;-0.178;2023-03-15T03:15:19;101111.69;;;6.45;85.57
43420;BME280;29017;51.514;-0.178;2023-03-15T03:17:46;101108.38;;;6.43;85.67
43420;BME280;29017;51.514;-0.178;2023-03-15T03:20:13;101103.50;;;6.39;85.18
43420;BME280;29017;51.514;-0.178;2023-03-15T03:22:40;101118.56;;;6.35;85.03
43420;BME280;29017;51.514;-0.178;2023-03-15T03:25:08;101108.13;;;6.35;85.27
43420;BME280;29017;51.514;-0.178;2023-03-15T03:27:36;101115.13;;;6.35;85.34
43420;BME280;29017;51.514;-0.178;2023-03-15T03:30:03;101119.75;;;6.31;85.02
43420;BME280;29017;51.514;-0.178;2023-03-15T03:32:30;101125.22;;;6.28;85.31
43420;BME280;29017;51.514;-0.178;2023-03-15T03:34:57;101121.19;;;6.24;85.46
43420;BME280;29017;51.514;-0.178;2023-03-15T03:37:24;101123.09;;;6.22;85.81
43420;BME280;29017;51.514;-0.178;2023-03-15T03:39:51;101133.53;;;6.22;85.84
43420;BME280;29017;51.514;-0.178;2023-03-15T03:42:18;101135.56;;;6.19;85.64
43420;BME280;29017;51.514;-0.178;2023-03-15T03:44:45;101142.78;;;6.15;85.42
43420;BME280;29017;51.514;-0.178;2023-03-15T03:47:12;101151.81;;;6.11;85.72
43420;BME280;29017;51.514;-0.178;2023-03-15T03:49:39;101154.66;;;6.08;85.68
43420;BME280;29017;51.514;-0.178;2023-03-15T03:52:06;101165.44;;;6.04;86.10
43420;BME280;29017;51.514;-0.178;2023-03-15T03:54:34;101177.31;;;6.08;86.81
43420;BME280;29017;51.514;-0.178;2023-03-15T03:57:01;101179.59;;;6.12;86.31
43420;BME280;29017;51.514;-0.178;2023-03-15T03:59:28;101177.72;;;6.14;86.23
43420;BME280;29017;51.514;-0.178;2023-03-15T04:01:55;101176.03;;;6.13;86.10
43420;BME280;29017;51.514;-0.178;2023-03-15T04:04:21;101172.34;;;6.16;86.20
43420;BME280;29017;51.514;-0.178;2023-03-15T04:06:48;101164.41;;;6.17;86.73
43420;BME280;29017;51.514;-0.178;2023-03-15T04:09:16;101166.28;;;6.15;86.11
43420;BME280;29017;51.514;-0.178;2023-03-15T04:11:43;101164.84;;;6.11;85.82
43420;BME280;29017;51.514;-0.178;2023-03-15T04:14:10;101167.00;;;6.06;85.67
43420;BME280;29017;51.514;-0.178;2023-03-15T04:16:38;101170.44;;;6.07;86.10
43420;BME280;29017;51.514;-0.178;2023-03-15T04:19:05;101172.09;;;6.08;86.34
43420;BME280;29017;51.514;-0.178;2023-03-15T04:21:33;101171.03;;;6.10;86.75
43420;BME280;29017;51.514;-0.178;2023-03-15T04:24:00;101183.03;;;6.13;86.20
43420;BME280;29017;51.514;-0.178;2023-03-15T04:26:27;101173.28;;;6.15;85.66
43420;BME280;29017;51.514;-0.178;2023-03-15T04:28:55;101169.03;;;6.14;85.41
43420;BME280;29017;51.514;-0.178;2023-03-15T04:31:22;101170.81;;;6.13;85.84
43420;BME280;29017;51.514;-0.178;2023-03-15T04:33:53;101163.91;;;6.12;85.58
43420;BME280;29017;51.514;-0.178;2023-03-15T04:36:20;101169.97;;;6.13;85.95
43420;BME280;29017;51.514;-0.178;2023-03-15T04:38:47;101159.41;;;6.14;86.17
43420;BME280;29017;51.514;-0.178;2023-03-15T04:41:15;101163.56;;;6.17;85.96
43420;BME280;29017;51.514;-0.178;2023-03-15T04:43:43;101162.84;;;6.15;85.42
43420;BME280;29017;51.514;-0.178;2023-03-15T04:46:10;101166.63;;;6.11;85.18
43420;BME280;29017;51.514;-0.178;2023-03-15T04:48:37;101165.22;;;6.07;85.05
43420;BME280;29017;51.514;-0.178;2023-03-15T04:51:04;101156.78;;;6.03;85.25
43420;BME280;29017;51.514;-0.178;2023-03-15T04:53:31;101168.91;;;6.04;85.78
43420;BME280;29017;51.514;-0.178;2023-03-15T04:55:59;101169.13;;;6.01;86.39
43420;BME280;29017;51.514;-0.178;2023-03-15T04:58:29;101178.72;;;6.00;86.46
43420;BME280;29017;51.514;-0.178;2023-03-15T05:00:56;101183.84;;;6.02;86.52
43420;BME280;29017;51.514;-0.178;2023-03-15T05:03:23;101181.13;;;6.04;87.80
43420;BME280;29017;51.514;-0.178;2023-03-15T05:05:50;101179.56;;;6.01;87.84
43420;BME280;29017;51.514;-0.178;2023-03-15T05:08:17;101178.84;;;5.99;87.24
43420;BME280;29017;51.514;-0.178;2023-03-15T05:10:44;101170.41;;;5.95;86.68
43420;BME280;29017;51.514;-0.178;2023-03-15T05:13:11;101162.69;;;5.94;86.57
43420;BME280;29017;51.514;-0.178;2023-03-15T05:15:38;101169.91;;;5.90;86.43
43420;BME280;29017;51.514;-0.178;2023-03-15T05:18:05;101168.56;;;5.85;86.14
43420;BME280;29017;51.514;-0.178;2023-03-15T05:20:32;101178.06;;;5.86;86.86
43420;BME280;29017;51.514;-0.178;2023-03-15T05:22:59;101181.44;;;5.88;88.80
43420;BME280;29017;51.514;-0.178;2023-03-15T05:25:26;101171.00;;;5.88;88.54
43420;BME280;29017;51.514;-0.178;2023-03-15T05:27:54;101173.78;;;5.85;88.63
43420;BME280;29017;51.514;-0.178;2023-03-15T05:30:21;101182.38;;;5.87;89.57
43420;BME280;29017;51.514;-0.178;2023-03-15T05:32:48;101195.72;;;5.82;88.86
43420;BME280;29017;51.514;-0.178;2023-03-15T05:35:15;101197.84;;;5.77;88.10
43420;BME280;29017;51.514;-0.178;2023-03-15T05:37:42;101189.91;;;5.79;88.29
43420;BME280;29017;51.514;-0.178;2023-03-15T05:40:09;101192.53;;;5.79;88.22
43420;BME280;29017;51.514;-0.178;2023-03-15T05:42:37;101195.84;;;5.81;89.02
43420;BME280;29017;51.514;-0.178;2023-03-15T05:45:04;101201.91;;;5.81;88.35
43420;BME280;29017;51.514;-0.178;2023-03-15T05:47:31;101203.78;;;5.79;88.22
43420;BME280;29017;51.514;-0.178;2023-03-15T05:49:59;101202.84;;;5.80;88.13
43420;BME280;29017;51.514;-0.178;2023-03-15T05:52:26;101208.69;;;5.84;88.62
43420;BME280;29017;51.514;-0.178;2023-03-15T05:54:53;101207.00;;;5.83;88.94
43420;BME280;29017;51.514;-0.178;2023-03-15T05:57:20;101209.84;;;5.80;88.54
43420;BME280;29017;51.514;-0.178;2023-03-15T05:59:47;101215.88;;;5.80;88.17
43420;BME280;29017;51.514;-0.178;2023-03-15T06:02:14;101217.56;;;5.81;88.18
43420;BME280;29017;51.514;-0.178;2023-03-15T06:04:41;101217.56;;;5.81;88.16
43420;BME280;29017;51.514;-0.178;2023-03-15T06:07:08;101215.69;;;5.83;88.41
43420;BME280;29017;51.514;-0.178;2023-03-15T06:09:35;101221.84;;;5.82;88.40
43420;BME280;29017;51.514;-0.178;2023-03-15T06:12:02;101221.75;;;5.84;88.38
43420;BME280;29017;51.514;-0.178;2023-03-15T06:14:29;101228.59;;;5.85;88.69
43420;BME280;29017;51.514;-0.178;2023-03-15T06:16:56;101225.88;;;5.86;88.34
43420;BME280;29017;51.514;-0.178;2023-03-15T06:19:23;101230.38;;;5.84;88.68
43420;BME280;29017;51.514;-0.178;2023-03-15T06:21:50;101237.72;;;5.79;88.51
43420;BME280;29017;51.514;-0.178;2023-03-15T06:24:17;101245.69;;;5.78;88.99
43420;BME280;29017;51.514;-0.178;2023-03-15T06:26:44;101245.69;;;5.78;90.06
43420;BME280;29017;51.514;-0.178;2023-03-15T06:29:11;101245.69;;;5.78;90.08
43420;BME280;29017;51.514;-0.178;2023-03-15T06:31:38;101255.38;;;5.76;89.74
43420;BME280;29017;51.514;-0.178;2023-03-15T06:34:05;101261.34;;;5.78;89.94
43420;BME280;29017;51.514;-0.178;2023-03-15T06:36:32;101253.50;;;5.78;89.98
43420;BME280;29017;51.514;-0.178;2023-03-15T06:38:59;101257.06;;;5.77;89.59
43420;BME280;29017;51.514;-0.178;2023-03-15T06:41:28;101262.69;;;5.83;89.99
43420;BME280;29017;51.514;-0.178;2023-03-15T06:43:55;101265.69;;;5.90;90.39
43420;BME280;29017;51.514;-0.178;2023-03-15T06:46:22;101261.44;;;5.89;89.66
43420;BME280;29017;51.514;-0.178;2023-03-15T06:48:50;101257.00;;;5.89;89.49
43420;BME280;29017;51.514;-0.178;2023-03-15T06:51:17;101269.75;;;5.94;89.96
43420;BME280;29017;51.514;-0.178;2023-03-15T06:53:44;101270.34;;;5.97;89.64
43420;BME280;29017;51.514;-0.178;2023-03-15T06:56:11;101272.63;;;6.02;89.13
43420;BME280;29017;51.514;-0.178;2023-03-15T06:58:38;101268.34;;;6.01;88.33
43420;BME280;29017;51.514;-0.178;2023-03-15T07:01:06;101266.34;;;6.05;88.35
43420;BME280;29017;51.514;-0.178;2023-03-15T07:03:33;101270.28;;;6.10;89.29
43420;BME280;29017;51.514;-0.178;2023-03-15T07:06:00;101270.66;;;6.17;89.27
43420;BME280;29017;51.514;-0.178;2023-03-15T07:08:27;101279.94;;;6.21;88.70
43420;BME280;29017;51.514;-0.178;2023-03-15T07:10:54;101282.34;;;6.24;88.39
43420;BME280;29017;51.514;-0.178;2023-03-15T07:13:22;101291.50;;;6.29;88.15
43420;BME280;29017;51.514;-0.178;2023-03-15T07:15:51;101290.44;;;6.32;87.87
43420;BME280;29017;51.514;-0.178;2023-03-15T07:18:18;101291.03;;;6.35;87.66
43420;BME280;29017;51.514;-0.178;2023-03-15T07:20:46;101290.91;;;6.37;87.33
43420;BME280;29017;51.514;-0.178;2023-03-15T07:23:13;101292.50;;;6.39;87.88
43420;BME280;29017;51.514;-0.178;2023-03-15T07:25:40;101292.25;;;6.42;87.66
43420;BME280;29017;51.514;-0.178;2023-03-15T07:28:20;101293.22;;;6.53;88.17
43420;BME280;29017;51.514;-0.178;2023-03-15T07:33:18;101311.38;;;7.00;86.21
43420;BME280;29017;51.514;-0.178;2023-03-15T07:35:49;101310.19;;;7.04;84.77
43420;BME280;29017;51.514;-0.178;2023-03-15T07:38:16;101313.38;;;7.08;84.97
43420;BME280;29017;51.514;-0.178;2023-03-15T07:40:44;101313.88;;;7.13;85.65
43420;BME280;29017;51.514;-0.178;2023-03-15T07:43:11;101314.47;;;7.39;84.44
43420;BME280;29017;51.514;-0.178;2023-03-15T07:45:38;101307.53;;;7.60;83.39
43420;BME280;29017;51.514;-0.178;2023-03-15T07:48:06;101311.44;;;7.77;80.93
43420;BME280;29017;51.514;-0.178;2023-03-15T07:50:33;101310.41;;;8.00;78.99
43420;BME280;29017;51.514;-0.178;2023-03-15T07:53:00;101311.28;;;8.21;79.31
43420;BME280;29017;51.514;-0.178;2023-03-15T07:55:29;101311.97;;;8.23;77.94
43420;BME280;29017;51.514;-0.178;2023-03-15T07:57:57;101302.06;;;8.38;78.80
43420;BME280;29017;51.514;-0.178;2023-03-15T08:00:26;101306.94;;;8.42;77.44
43420;BME280;29017;51.514;-0.178;2023-03-15T08:02:53;101307.66;;;8.33;76.75
43420;BME280;29017;51.514;-0.178;2023-03-15T08:05:21;101298.16;;;8.32;77.58
43420;BME280;29017;51.514;-0.178;2023-03-15T08:07:48;101290.31;;;8.32;80.64
43420;BME280;29017;51.514;-0.178;2023-03-15T08:10:15;101288.97;;;8.27;79.19
43420;BME280;29017;51.514;-0.178;2023-03-15T08:12:43;101286.84;;;8.21;79.17
43420;BME280;29017;51.514;-0.178;2023-03-15T08:15:11;101288.19;;;8.15;78.16
43420;BME280;29017;51.514;-0.178;2023-03-15T08:17:39;101294.38;;;8.14;78.71
43420;BME280;29017;51.514;-0.178;2023-03-15T08:20:07;101289.53;;;8.09;78.56
43420;BME280;29017;51.514;-0.178;2023-03-15T08:22:37;101289.84;;;8.16;79.50
43420;BME280;29017;51.514;-0.178;2023-03-15T08:25:04;101297.34;;;8.32;80.25
43420;BME280;29017;51.514;-0.178;2023-03-15T08:27:32;101298.28;;;8.51;79.51
43420;BME280;29017;51.514;-0.178;2023-03-15T08:29:59;101296.50;;;8.73;77.96
43420;BME280;29017;51.514;-0.178;2023-03-15T08:32:27;101306.53;;;8.88;77.02
43420;BME280;29017;51.514;-0.178;2023-03-15T08:34:54;101304.34;;;8.93;76.63
43420;BME280;29017;51.514;-0.178;2023-03-15T08:37:23;101311.06;;;8.86;75.79
43420;BME280;29017;51.514;-0.178;2023-03-15T08:39:50;101310.22;;;8.86;76.53
43420;BME280;29017;51.514;-0.178;2023-03-15T08:42:26;101315.38;;;8.87;77.44
43420;BME280;29017;51.514;-0.178;2023-03-15T08:44:54;101309.91;;;8.79;74.57
43420;BME280;29017;51.514;-0.178;2023-03-15T08:47:25;101310.06;;;8.78;74.51
43420;BME280;29017;51.514;-0.178;2023-03-15T08:49:52;101315.16;;;8.79;75.48
43420;BME280;29017;51.514;-0.178;2023-03-15T08:52:20;101309.91;;;8.79;75.58
43420;BME280;29017;51.514;-0.178;2023-03-15T08:54:47;101312.28;;;8.82;76.25
43420;BME280;29017;51.514;-0.178;2023-03-15T08:57:14;101307.06;;;8.82;75.66
43420;BME280;29017;51.514;-0.178;2023-03-15T08:59:42;101311.19;;;8.85;75.07
43420;BME280;29017;51.514;-0.178;2023-03-15T09:02:09;101312.84;;;8.86;74.98
43420;BME280;29017;51.514;-0.178;2023-03-15T09:04:39;101309.41;;;8.85;73.54
43420;BME280;29017;51.514;-0.178;2023-03-15T09:07:06;101310.50;;;8.83;73.51
43420;BME280;29017;51.514;-0.178;2023-03-15T09:12:07;101308.13;;;8.80;72.86
43420;BME280;29017;51.514;-0.178;2023-03-15T09:14:34;101305.38;;;8.81;73.84
43420;BME280;29017;51.514;-0.178;2023-03-15T09:17:02;101301.41;;;8.87;73.77
43420;BME280;29017;51.514;-0.178;2023-03-15T09:19:29;101305.44;;;8.91;73.50
43420;BME280;29017;51.514;-0.178;2023-03-15T09:21:58;101298.50;;;8.90;72.60
43420;BME280;29017;51.514;-0.178;2023-03-15T09:24:42;101298.38;;;8.91;72.43
43420;BME280;29017;51.514;-0.178;2023-03-15T09:27:13;101307.78;;;8.94;72.69
43420;BME280;29017;51.514;-0.178;2023-03-15T09:29:51;101311.13;;;8.96;72.84
43420;BME280;29017;51.514;-0.178;2023-03-15T09:32:18;101310.59;;;9.02;74.11
43420;BME280;29017;51.514;-0.178;2023-03-15T09:34:46;101311.28;;;9.04;73.37
43420;BME280;29017;51.514;-0.178;2023-03-15T09:37:14;101306.75;;;9.06;71.98
43420;BME280;29017;51.514;-0.178;2023-03-15T09:39:41;101309.69;;;9.13;72.35
43420;BME280;29017;51.514;-0.178;2023-03-15T09:44:43;101310.00;;;9.19;71.89
43420;BME280;29017;51.514;-0.178;2023-03-15T09:52:12;101317.53;;;9.43;69.67
43420;BME280;29017;51.514;-0.178;2023-03-15T09:54:45;101320.72;;;9.47;69.15
43420;BME280;29017;51.514;-0.178;2023-03-15T09:57:21;101320.59;;;9.48;68.80
43420;BME280;29017;51.514;-0.178;2023-03-15T09:59:52;101326.41;;;9.52;68.17
43420;BME280;29017;51.514;-0.178;2023-03-15T10:02:22;101311.06;;;9.57;67.78
43420;BME280;29017;51.514;-0.178;2023-03-15T10:04:50;101329.78;;;9.63;67.63
43420;BME280;29017;51.514;-0.178;2023-03-15T10:07:22;101314.69;;;9.65;66.92
43420;BME280;29017;51.514;-0.178;2023-03-15T10:09:50;101321.06;;;9.72;67.06
43420;BME280;29017;51.514;-0.178;2023-03-15T10:12:22;101322.63;;;9.75;65.76
43420;BME280;29017;51.514;-0.178;2023-03-15T10:17:25;101324.56;;;9.92;65.44
43420;BME280;29017;51.514;-0.178;2023-03-15T10:22:28;101314.06;;;10.11;64.17
43420;BME280;29017;51.514;-0.178;2023-03-15T10:30:12;101315.09;;;10.29;62.43
43420;BME280;29017;51.514;-0.178;2023-03-15T10:32:57;101317.41;;;10.33;60.14
43420;BME280;29017;51.514;-0.178;2023-03-15T10:39:02;101315.91;;;10.40;58.89
43420;BME280;29017;51.514;-0.178;2023-03-15T10:44:04;101322.25;;;10.47;57.92
43420;BME280;29017;51.514;-0.178;2023-03-15T10:46:31;101328.63;;;10.54;57.70
43420;BME280;29017;51.514;-0.178;2023-03-15T10:49:05;101335.13;;;10.59;57.73
43420;BME280;29017;51.514;-0.178;2023-03-15T10:54:10;101330.97;;;10.66;58.08
43420;BME280;29017;51.514;-0.178;2023-03-15T10:59:13;101336.78;;;10.70;58.55
43420;BME280;29017;51.514;-0.178;2023-03-15T11:01:45;101326.66;;;10.75;59.21
43420;BME280;29017;51.514;-0.178;2023-03-15T11:06:44;101325.94;;;10.83;58.70
43420;BME280;29017;51.514;-0.178;2023-03-15T11:09:13;101325.81;;;10.84;58.77
43420;BME280;29017;51.514;-0.178;2023-03-15T11:14:10;101324.13;;;10.93;58.24
43420;BME280;29017;51.514;-0.178;2023-03-15T11:16:38;101323.16;;;10.94;58.26
43420;BME280;29017;51.514;-0.178;2023-03-15T11:19:10;101327.84;;;11.00;58.63
43420;BME280;29017;51.514;-0.178;2023-03-15T11:21:40;101313.72;;;11.01;56.86
43420;BME280;29017;51.514;-0.178;2023-03-15T11:24:09;101316.03;;;11.04;56.25
43420;BME280;29017;51.514;-0.178;2023-03-15T11:26:45;101315.78;;;11.07;55.76
43420;BME280;29017;51.514;-0.178;2023-03-15T11:29:20;101318.81;;;11.12;56.23
43420;BME280;29017;51.514;-0.178;2023-03-15T11:31:48;101307.84;;;11.17;56.73
43420;BME280;29017;51.514;-0.178;2023-03-15T11:36:47;101312.41;;;11.14;56.14
43420;BME280;29017;51.514;-0.178;2023-03-15T11:39:36;101319.22;;;11.17;57.63
43420;BME280;29017;51.514;-0.178;2023-03-15T11:42:05;101311.31;;;11.17;56.07
43420;BME280;29017;51.514;-0.178;2023-03-15T11:44:37;101321.25;;;11.23;55.80
43420;BME280;29017;51.514;-0.178;2023-03-15T11:47:09;101322.91;;;11.24;54.69
43420;BME280;29017;51.514;-0.178;2023-03-15T11:52:09;101315.97;;;11.23;54.16
43420;BME280;29017;51.514;-0.178;2023-03-15T11:54:39;101312.09;;;11.27;55.15
43420;BME280;29017;51.514;-0.178;2023-03-15T11:59:54;101294.28;;;11.39;53.53
43420;BME280;29017;51.514;-0.178;2023-03-15T12:04:49;101303.59;;;11.33;53.18
43420;BME280;29017;51.514;-0.178;2023-03-15T12:09:46;101302.88;;;11.41;54.21
43420;BME280;29017;51.514;-0.178;2023-03-15T12:14:43;101308.22;;;11.49;52.75
43420;BME280;29017;51.514;-0.178;2023-03-15T12:19:43;101294.59;;;11.53;51.67
43420;BME280;29017;51.514;-0.178;2023-03-15T12:24:41;101277.53;;;11.57;50.94
43420;BME280;29017;51.514;-0.178;2023-03-15T12:29:42;101267.66;;;11.59;50.84
43420;BME280;29017;51.514;-0.178;2023-03-15T12:32:12;101262.13;;;11.63;51.72
43420;BME280;29017;51.514;-0.178;2023-03-15T12:39:43;101257.38;;;11.66;52.79
43420;BME280;29017;51.514;-0.178;2023-03-15T12:42:12;101264.31;;;11.67;52.58
43420;BME280;29017;51.514;-0.178;2023-03-15T12:44:41;101257.06;;;11.69;51.90
43420;BME280;29017;51.514;-0.178;2023-03-15T12:47:09;101256.22;;;11.69;53.48
43420;BME280;29017;51.514;-0.178;2023-03-15T12:49:40;101259.16;;;11.66;52.96
43420;BME280;29017;51.514;-0.178;2023-03-15T12:57:19;101242.25;;;11.68;50.71
43420;BME280;29017;51.514;-0.178;2023-03-15T13:04:46;101238.31;;;11.72;53.57
43420;BME280;29017;51.514;-0.178;2023-03-15T13:07:20;101233.75;;;11.74;53.25
43420;BME280;29017;51.514;-0.178;2023-03-15T13:17:29;101233.28;;;11.79;55.73
43420;BME280;29017;51.514;-0.178;2023-03-15T13:20:07;101233.47;;;11.77;56.06
43420;BME280;29017;51.514;-0.178;2023-03-15T13:22:44;101234.94;;;11.80;56.94
43420;BME280;29017;51.514;-0.178;2023-03-15T13:32:47;101234.47;;;11.67;55.76
43420;BME280;29017;51.514;-0.178;2023-03-15T13:35:22;101232.13;;;11.64;56.54
43420;BME280;29017;51.514;-0.178;2023-03-15T13:40:27;101220.31;;;11.68;57.26
43420;BME280;29017;51.514;-0.178;2023-03-15T13:42:58;101218.81;;;11.65;57.26
43420;BME280;29017;51.514;-0.178;2023-03-15T13:45:25;101215.09;;;11.58;56.81
43420;BME280;29017;51.514;-0.178;2023-03-15T13:47:52;101214.56;;;11.54;57.59
43420;BME280;29017;51.514;-0.178;2023-03-15T13:50:21;101200.56;;;11.54;59.27
43420;BME280;29017;51.514;-0.178;2023-03-15T13:52:48;101203.38;;;11.52;57.50
43420;BME280;29017;51.514;-0.178;2023-03-15T13:57:48;101189.88;;;11.55;56.80
43420;BME280;29017;51.514;-0.178;2023-03-15T14:00:40;101183.94;;;11.53;56.76
43420;BME280;29017;51.514;-0.178;2023-03-15T14:03:12;101178.28;;;11.48;57.27
43420;BME280;29017;51.514;-0.178;2023-03-15T14:05:42;101175.66;;;11.48;56.67
43420;BME280;29017;51.514;-0.178;2023-03-15T14:13:23;101170.09;;;11.51;57.90
43420;BME280;29017;51.514;-0.178;2023-03-15T14:18:23;101164.13;;;11.49;57.73
43420;BME280;29017;51.514;-0.178;2023-03-15T14:20:52;101164.97;;;11.50;58.20
43420;BME280;29017;51.514;-0.178;2023-03-15T14:23:21;101162.56;;;11.56;58.91
43420;BME280;29017;51.514;-0.178;2023-03-15T14:25:50;101152.22;;;11.63;60.30
43420;BME280;29017;51.514;-0.178;2023-03-15T14:28:18;101163.16;;;11.68;59.92
43420;BME280;29017;51.514;-0.178;2023-03-15T14:35:47;101148.31;;;11.67;58.96
43420;BME280;29017;51.514;-0.178;2023-03-15T14:38:20;101150.97;;;11.67;60.20
43420;BME280;29017;51.514;-0.178;2023-03-15T14:40:48;101151.09;;;11.66;59.27
43420;BME280;29017;51.514;-0.178;2023-03-15T14:43:17;101147.50;;;11.67;58.56
43420;BME280;29017;51.514;-0.178;2023-03-15T14:45:45;101152.06;;;11.65;59.88
43420;BME280;29017;51.514;-0.178;2023-03-15T14:48:25;101134.31;;;11.67;59.38
43420;BME280;29017;51.514;-0.178;2023-03-15T14:50:54;101138.53;;;11.59;58.56